createdAt,value
2023-01-07T00:01:02.867Z,3.95
2023-01-07T00:06:01.232Z,3.90
2023-01-07T00:11:02.303Z,4.15
2023-01-07T00:16:00.733Z,3.97
2023-01-07T00:21:00.389Z,3.88
2023-01-07T00:26:01.812Z,3.90
2023-01-07T00:31:00.706Z,5.82
2023-01-07T00:36:03.959Z,29.35
2023-01-07T00:41:02.317Z,5.70
2023-01-07T00:46:00.574Z,4.45
2023-01-07T00:50:58.800Z,7.60
2023-01-07T00:55:58.491Z,9.38
2023-01-07T01:00:57.349Z,11.20
2023-01-07T01:05:56.267Z,10.18
2023-01-07T01:10:54.488Z,8.25
2023-01-07T01:15:54.023Z,4.20
2023-01-07T01:20:52.279Z,4.28
2023-01-07T01:25:50.475Z,5.28
2023-01-07T01:30:56.890Z,4.35
2023-01-07T01:35:57.586Z,4.75
2023-01-07T01:40:55.830Z,4.55
2023-01-07T01:45:54.251Z,5.05
2023-01-07T01:50:54.107Z,3.88
2023-01-07T01:55:54.719Z,4.88
2023-01-07T02:00:53.277Z,4.80
2023-01-07T02:05:53.415Z,4.65
2023-01-07T02:11:06.592Z,4.45
2023-01-07T02:16:10.232Z,4.82
2023-01-07T02:21:17.919Z,3.95
2023-01-07T02:26:28.477Z,4.10
2023-01-07T02:31:37.126Z,4.38
2023-01-07T02:36:46.056Z,4.65
2023-01-07T02:41:47.123Z,4.50
2023-01-07T02:46:48.097Z,4.75
2023-01-07T02:51:47.864Z,4.47
2023-01-07T02:57:00.130Z,4.32
2023-01-07T03:02:19.529Z,3.80
2023-01-07T03:07:25.546Z,4.90
2023-01-07T03:12:28.368Z,4.47
2023-01-07T03:17:29.173Z,4.38
2023-01-07T03:22:32.753Z,4.45
2023-01-07T03:27:33.364Z,5.60
2023-01-07T03:32:34.624Z,4.47
2023-01-07T03:37:35.560Z,5.15
2023-01-07T03:42:42.784Z,8.15
2023-01-07T03:47:52.889Z,5.47
2023-01-07T03:52:52.953Z,4.88
2023-01-07T03:57:52.838Z,10.52
2023-01-07T04:02:51.177Z,13.80
2023-01-07T04:07:55.930Z,7.82
2023-01-07T04:12:56.365Z,4.40
2023-01-07T04:17:54.629Z,5.32
2023-01-07T04:22:54.551Z,5.45
2023-01-07T04:27:54.170Z,8.02
2023-01-07T04:32:53.707Z,6.93
2023-01-07T04:37:52.285Z,5.55
2023-01-07T04:42:50.619Z,28.05
2023-01-07T04:47:50.443Z,18.70
2023-01-07T04:52:49.193Z,12.02
2023-01-07T04:57:47.462Z,8.48
2023-01-07T05:02:46.366Z,5.93
2023-01-07T05:07:46.406Z,5.45
2023-01-07T05:12:45.190Z,5.45
2023-01-07T05:17:45.310Z,6.55
2023-01-07T05:22:46.499Z,6.60
2023-01-07T05:27:44.956Z,16.40
2023-01-07T05:32:44.001Z,9.93
2023-01-07T05:37:42.785Z,9.40
2023-01-07T05:42:42.473Z,10.02
2023-01-07T05:47:40.914Z,7.70
2023-01-07T05:52:39.171Z,16.48
2023-01-07T05:57:37.327Z,7.45
2023-01-07T06:02:36.901Z,6.80
2023-01-07T06:07:35.059Z,7.45
2023-01-07T06:12:34.167Z,8.35
2023-01-07T06:17:32.337Z,6.85
2023-01-07T06:22:31.891Z,8.73
2023-01-07T06:27:30.061Z,6.18
2023-01-07T06:32:28.242Z,20.25
2023-01-07T06:37:26.422Z,19.23
2023-01-07T06:42:25.951Z,10.07
2023-01-07T06:47:25.377Z,8.40
2023-01-07T06:52:23.553Z,8.10
2023-01-07T06:57:21.738Z,12.98
2023-01-07T07:02:22.517Z,10.80
2023-01-07T07:07:20.955Z,10.65
2023-01-07T07:12:19.508Z,36.85
2023-01-07T07:17:20.839Z,19.85
2023-01-07T07:22:20.351Z,14.88
2023-01-07T07:27:18.513Z,8.50
2023-01-07T07:32:16.681Z,8.90
2023-01-07T07:37:14.828Z,11.68
2023-01-07T07:42:14.363Z,9.57
2023-01-07T07:47:15.224Z,14.32
2023-01-07T07:52:13.379Z,12.65
2023-01-07T07:57:11.533Z,11.38
2023-01-07T08:02:13.586Z,13.45
2023-01-07T08:07:12.667Z,11.93
2023-01-07T08:12:10.880Z,13.95
2023-01-07T08:17:09.101Z,46.28
2023-01-07T08:22:08.648Z,12.27
2023-01-07T08:27:06.933Z,12.55
2023-01-07T08:32:05.368Z,16.90
2023-01-07T08:37:03.566Z,18.13
2023-01-07T08:42:03.091Z,15.80
2023-01-07T08:47:01.422Z,12.60
2023-01-07T08:51:59.616Z,11.55
2023-01-07T08:56:57.781Z,14.18
2023-01-07T09:01:57.540Z,13.20
2023-01-07T09:06:58.785Z,13.70
2023-01-07T09:11:56.992Z,15.32
2023-01-07T09:16:55.166Z,12.05
2023-01-07T09:21:56.713Z,15.98
2023-01-07T09:26:55.080Z,19.38
2023-01-07T09:31:53.353Z,15.27
2023-01-07T09:36:51.533Z,14.38
2023-01-07T09:41:55.246Z,14.70
2023-01-07T09:46:54.697Z,12.38
2023-01-07T09:51:55.603Z,13.35
2023-01-07T09:56:55.328Z,10.50
2023-01-07T10:01:57.377Z,11.38
2023-01-07T10:07:00.332Z,13.73
2023-01-07T10:12:03.312Z,15.27
2023-01-07T10:17:07.144Z,10.88
2023-01-07T10:22:09.229Z,16.67
2023-01-07T10:27:11.199Z,16.73
2023-01-07T10:32:16.033Z,12.27
2023-01-07T10:37:17.721Z,11.73
2023-01-07T10:42:21.782Z,11.85
2023-01-07T10:47:25.229Z,19.63
2023-01-07T10:52:33.251Z,15.95
2023-01-07T10:57:33.624Z,13.07
2023-01-07T11:02:31.956Z,15.85
2023-01-07T11:07:33.096Z,13.13
2023-01-07T11:12:37.257Z,11.88
2023-01-07T11:17:37.332Z,14.53
2023-01-07T11:22:36.648Z,17.70
2023-01-07T11:27:37.019Z,17.50
2023-01-07T11:32:38.487Z,16.48
2023-01-07T11:37:38.468Z,13.68
2023-01-07T11:42:48.123Z,18.30
2023-01-07T11:47:47.378Z,12.65
2023-01-07T11:52:55.759Z,14.65
2023-01-07T11:58:12.988Z,18.40
2023-01-07T12:03:15.015Z,20.40
2023-01-07T12:08:20.258Z,13.38
2023-01-07T12:13:21.878Z,13.13
2023-01-07T12:18:43.706Z,18.27
2023-01-07T12:23:47.467Z,14.55
2023-01-07T12:28:54.180Z,12.57
2023-01-07T12:34:06.166Z,14.82
2023-01-07T12:39:06.088Z,18.35
2023-01-07T12:44:07.450Z,15.93
2023-01-07T12:49:08.956Z,18.27
2023-01-07T12:54:12.831Z,15.45
2023-01-07T12:59:47.054Z,15.52
2023-01-07T13:04:42.582Z,19.35
2023-01-07T13:09:42.787Z,18.33
2023-01-07T13:14:43.371Z,15.32
2023-01-07T13:19:41.530Z,14.63
2023-01-07T13:24:54.498Z,17.55
2023-01-07T13:30:00.551Z,13.95
2023-01-07T13:35:04.990Z,16.75
2023-01-07T13:40:12.915Z,17.67
2023-01-07T13:45:14.520Z,17.73
2023-01-07T13:50:23.441Z,29.13
2023-01-07T13:55:35.968Z,17.73
2023-01-07T14:00:42.987Z,15.23
2023-01-07T14:05:42.300Z,19.50
2023-01-07T14:10:40.528Z,41.58
2023-01-07T14:15:54.022Z,41.30
2023-01-07T14:20:55.699Z,21.23
2023-01-07T14:26:08.247Z,20.88
2023-01-07T14:31:20.076Z,14.75
2023-01-07T14:36:18.252Z,17.52
2023-01-07T14:41:17.037Z,19.33
2023-01-07T14:46:33.610Z,15.30
2023-01-07T14:51:45.423Z,18.42
2023-01-07T14:56:50.629Z,48.25
2023-01-07T15:01:53.163Z,33.47
2023-01-07T15:06:56.337Z,26.13
2023-01-07T15:12:13.838Z,33.58
2023-01-07T15:17:13.946Z,40.40
2023-01-07T15:22:28.731Z,40.03
2023-01-07T15:27:32.343Z,29.33
2023-01-07T15:32:37.593Z,22.55
2023-01-07T15:37:37.245Z,15.73
2023-01-07T15:42:35.519Z,23.77
2023-01-07T15:47:37.944Z,33.70
2023-01-07T15:52:38.410Z,17.05
2023-01-07T15:57:37.437Z,15.35
2023-01-07T16:02:38.597Z,25.88
2023-01-07T16:07:43.073Z,37.63
2023-01-07T16:12:41.227Z,64.53
2023-01-07T16:17:50.169Z,43.58
2023-01-07T16:22:50.183Z,28.92
2023-01-07T16:27:48.552Z,19.58
2023-01-07T16:32:47.034Z,19.27
2023-01-07T16:37:45.499Z,16.85
2023-01-07T16:42:47.593Z,46.53
2023-01-07T16:47:59.563Z,29.20
2023-01-07T16:52:58.550Z,26.98
2023-01-07T16:57:58.162Z,40.13
2023-01-07T17:02:59.715Z,42.53
2023-01-07T17:07:59.160Z,37.42
2023-01-07T17:12:59.869Z,32.03
2023-01-07T17:18:20.692Z,23.85
2023-01-07T17:23:43.218Z,31.67
2023-01-07T17:28:46.887Z,80.63
2023-01-07T17:33:45.300Z,108.13
2023-01-07T17:38:43.515Z,56.05
2023-01-07T17:43:41.830Z,29.42
2023-01-07T17:48:41.468Z,50.50
2023-01-07T17:53:46.870Z,50.88
2023-01-07T17:58:47.550Z,52.03
2023-01-07T18:03:47.261Z,40.22
2023-01-07T18:08:45.619Z,34.78
2023-01-07T18:13:43.798Z,34.97
2023-01-07T18:18:42.038Z,31.08
2023-01-07T18:23:41.690Z,44.28
2023-01-07T18:28:39.907Z,35.17
2023-01-07T18:33:38.066Z,26.02
2023-01-07T18:38:36.284Z,29.45
2023-01-07T18:43:36.093Z,28.92
2023-01-07T18:48:34.877Z,28.70
2023-01-07T18:53:33.023Z,23.50
2023-01-07T18:58:31.207Z,38.10
2023-01-07T19:03:30.813Z,25.42
2023-01-07T19:08:29.102Z,62.83
2023-01-07T19:13:29.984Z,38.53
2023-01-07T19:18:28.179Z,42.85
2023-01-07T19:23:27.797Z,39.05
2023-01-07T19:28:26.008Z,37.70
2023-01-07T19:33:24.290Z,56.28
2023-01-07T19:38:22.480Z,26.85
2023-01-07T19:43:22.046Z,19.63
2023-01-07T19:48:20.459Z,21.83
2023-01-07T19:53:18.694Z,26.90
2023-01-07T19:58:18.004Z,23.92
2023-01-07T20:03:17.642Z,43.88
2023-01-07T20:08:15.809Z,16.60
2023-01-07T20:13:13.975Z,19.38
2023-01-07T20:18:15.140Z,37.70
2023-01-07T20:23:14.685Z,50.75
2023-01-07T20:28:12.885Z,58.17
2023-01-07T20:33:11.072Z,47.60
2023-01-07T20:38:11.326Z,29.42
2023-01-07T20:43:12.684Z,23.27
2023-01-07T20:48:12.597Z,12.05
2023-01-07T20:53:10.867Z,12.10
2023-01-07T20:58:10.471Z,14.60
2023-01-07T21:03:08.765Z,19.95
2023-01-07T21:08:07.041Z,12.25
2023-01-07T21:13:05.720Z,9.38
2023-01-07T21:18:05.229Z,9.10
2023-01-07T21:23:03.929Z,9.38
2023-01-07T21:28:02.167Z,10.57
2023-01-07T21:33:00.618Z,13.77
2023-01-07T21:38:00.147Z,12.07
2023-01-07T21:42:58.373Z,12.98
2023-01-07T21:47:56.533Z,12.68
2023-01-07T21:52:54.717Z,13.88
2023-01-07T21:57:54.316Z,12.73
2023-01-07T22:02:52.482Z,14.45
2023-01-07T22:07:50.707Z,12.00
2023-01-07T22:12:48.861Z,9.02
2023-01-07T22:17:48.370Z,6.55
2023-01-07T22:22:47.090Z,7.40
2023-01-07T22:27:45.246Z,6.43
2023-01-07T22:32:43.398Z,7.32
2023-01-07T22:37:42.930Z,10.60
2023-01-07T22:42:44.168Z,9.90
2023-01-07T22:47:43.925Z,9.38
2023-01-07T22:52:43.909Z,10.55
2023-01-07T22:57:42.486Z,7.25
2023-01-07T23:02:40.700Z,18.58
2023-01-07T23:07:38.926Z,24.98
2023-01-07T23:12:38.512Z,8.55
2023-01-07T23:17:36.713Z,7.90
2023-01-07T23:22:34.935Z,17.60
2023-01-07T23:27:33.175Z,24.80
2023-01-07T23:32:32.761Z,13.85
2023-01-07T23:37:30.940Z,10.38
2023-01-07T23:42:29.190Z,6.43
2023-01-07T23:47:27.352Z,5.03
2023-01-07T23:52:26.853Z,8.25
2023-01-07T23:57:25.068Z,8.95
